sensor_id;sensor_type;location;lat;lon;timestamp;P1;durP1;ratioP1;P2;durP2;ratioP2
59390;SDS011;53405;57.012;40.984;2022-10-16T00:01:14;19.77;;;11.93;;
59390;SDS011;53405;57.012;40.984;2022-10-16T00:04:03;21.73;;;11.45;;
59390;SDS011;53405;57.012;40.984;2022-10-16T00:06:52;22.30;;;11.77;;
59390;SDS011;53405;57.012;40.984;2022-10-16T00:09:40;19.52;;;12.13;;
59390;SDS011;53405;57.012;40.984;2022-10-16T00:12:27;18.40;;;11.27;;
59390;SDS011;53405;57.012;40.984;2022-10-16T00:15:15;20.65;;;12.75;;
59390;SDS011;53405;57.012;40.984;2022-10-16T00:18:03;20.58;;;11.77;;
59390;SDS011;53405;57.012;40.984;2022-10-16T00:20:52;23.70;;;12.80;;
59390;SDS011;53405;57.012;40.984;2022-10-16T00:24:05;22.73;;;12.68;;
59390;SDS011;53405;57.012;40.984;2022-10-16T00:26:56;21.02;;;12.65;;
59390;SDS011;53405;57.012;40.984;2022-10-16T00:29:44;19.15;;;11.68;;
59390;SDS011;53405;57.012;40.984;2022-10-16T00:32:31;19.27;;;12.82;;
59390;SDS011;53405;57.012;40.984;2022-10-16T00:35:19;19.23;;;11.98;;
59390;SDS011;53405;57.012;40.984;2022-10-16T00:38:06;20.45;;;12.60;;
59390;SDS011;53405;57.012;40.984;2022-10-16T00:40:54;19.73;;;12.18;;
59390;SDS011;53405;57.012;40.984;2022-10-16T00:43:43;23.70;;;13.98;;
59390;SDS011;53405;57.012;40.984;2022-10-16T00:46:37;18.27;;;12.43;;
59390;SDS011;53405;57.012;40.984;2022-10-16T00:49:26;24.70;;;13.45;;
59390;SDS011;53405;57.012;40.984;2022-10-16T00:52:14;18.67;;;12.13;;
59390;SDS011;53405;57.012;40.984;2022-10-16T00:55:02;23.20;;;12.77;;
59390;SDS011;53405;57.012;40.984;2022-10-16T00:57:51;21.85;;;13.48;;
59390;SDS011;53405;57.012;40.984;2022-10-16T01:00:40;22.60;;;13.00;;
59390;SDS011;53405;57.012;40.984;2022-10-16T01:03:34;21.15;;;12.70;;
59390;SDS011;53405;57.012;40.984;2022-10-16T01:06:32;23.70;;;13.20;;
59390;SDS011;53405;57.012;40.984;2022-10-16T01:13:06;21.42;;;12.75;;
59390;SDS011;53405;57.012;40.984;2022-10-16T01:16:05;21.50;;;12.90;;
59390;SDS011;53405;57.012;40.984;2022-10-16T01:21:50;21.77;;;13.70;;
59390;SDS011;53405;57.012;40.984;2022-10-16T01:27:31;20.15;;;13.02;;
59390;SDS011;53405;57.012;40.984;2022-10-16T01:30:24;20.60;;;12.50;;
59390;SDS011;53405;57.012;40.984;2022-10-16T01:36:26;23.65;;;13.43;;
59390;SDS011;53405;57.012;40.984;2022-10-16T01:39:22;24.80;;;12.88;;
59390;SDS011;53405;57.012;40.984;2022-10-16T01:42:19;23.55;;;13.73;;
59390;SDS011;53405;57.012;40.984;2022-10-16T01:45:10;23.63;;;12.43;;
59390;SDS011;53405;57.012;40.984;2022-10-16T01:48:00;21.73;;;12.43;;
59390;SDS011;53405;57.012;40.984;2022-10-16T01:51:13;20.23;;;13.07;;
59390;SDS011;53405;57.012;40.984;2022-10-16T01:54:04;18.67;;;12.52;;
59390;SDS011;53405;57.012;40.984;2022-10-16T01:56:55;21.60;;;13.63;;
59390;SDS011;53405;57.012;40.984;2022-10-16T02:02:34;19.25;;;12.98;;
59390;SDS011;53405;57.012;40.984;2022-10-16T02:05:30;21.77;;;13.60;;
59390;SDS011;53405;57.012;40.984;2022-10-16T02:08:22;19.77;;;13.70;;
59390;SDS011;53405;57.012;40.984;2022-10-16T02:11:11;19.38;;;11.95;;
59390;SDS011;53405;57.012;40.984;2022-10-16T02:14:01;22.00;;;12.98;;
59390;SDS011;53405;57.012;40.984;2022-10-16T02:16:51;21.88;;;12.95;;
59390;SDS011;53405;57.012;40.984;2022-10-16T02:19:39;23.80;;;12.35;;
59390;SDS011;53405;57.012;40.984;2022-10-16T02:22:39;22.35;;;13.05;;
59390;SDS011;53405;57.012;40.984;2022-10-16T02:25:31;22.23;;;13.60;;
59390;SDS011;53405;57.012;40.984;2022-10-16T02:28:26;21.90;;;12.30;;
59390;SDS011;53405;57.012;40.984;2022-10-16T02:31:25;22.75;;;13.35;;
59390;SDS011;53405;57.012;40.984;2022-10-16T02:34:18;22.70;;;13.15;;
59390;SDS011;53405;57.012;40.984;2022-10-16T02:37:08;23.02;;;13.32;;
59390;SDS011;53405;57.012;40.984;2022-10-16T02:39:57;23.08;;;13.18;;
59390;SDS011;53405;57.012;40.984;2022-10-16T02:42:49;25.35;;;13.75;;
59390;SDS011;53405;57.012;40.984;2022-10-16T02:45:37;22.15;;;12.95;;
59390;SDS011;53405;57.012;40.984;2022-10-16T02:48:25;20.67;;;13.40;;
59390;SDS011;53405;57.012;40.984;2022-10-16T02:51:13;20.55;;;12.93;;
59390;SDS011;53405;57.012;40.984;2022-10-16T02:54:01;24.55;;;13.00;;
59390;SDS011;53405;57.012;40.984;2022-10-16T02:56:49;21.73;;;12.48;;
59390;SDS011;53405;57.012;40.984;2022-10-16T02:59:36;21.20;;;12.43;;
59390;SDS011;53405;57.012;40.984;2022-10-16T03:02:24;22.98;;;13.50;;
59390;SDS011;53405;57.012;40.984;2022-10-16T03:05:12;21.73;;;13.07;;
59390;SDS011;53405;57.012;40.984;2022-10-16T03:08:00;21.40;;;13.55;;
59390;SDS011;53405;57.012;40.984;2022-10-16T03:10:47;22.88;;;13.20;;
59390;SDS011;53405;57.012;40.984;2022-10-16T03:13:35;19.73;;;13.13;;
59390;SDS011;53405;57.012;40.984;2022-10-16T03:16:23;22.23;;;13.27;;
59390;SDS011;53405;57.012;40.984;2022-10-16T03:19:10;22.67;;;13.30;;
59390;SDS011;53405;57.012;40.984;2022-10-16T03:21:58;25.05;;;13.05;;
59390;SDS011;53405;57.012;40.984;2022-10-16T03:24:45;23.98;;;13.38;;
59390;SDS011;53405;57.012;40.984;2022-10-16T03:27:33;22.05;;;12.13;;
59390;SDS011;53405;57.012;40.984;2022-10-16T03:30:20;22.10;;;13.00;;
59390;SDS011;53405;57.012;40.984;2022-10-16T03:33:08;22.05;;;12.73;;
59390;SDS011;53405;57.012;40.984;2022-10-16T03:35:55;23.15;;;13.13;;
59390;SDS011;53405;57.012;40.984;2022-10-16T03:38:43;23.65;;;13.00;;
59390;SDS011;53405;57.012;40.984;2022-10-16T03:41:30;19.70;;;12.82;;
59390;SDS011;53405;57.012;40.984;2022-10-16T03:44:18;21.00;;;12.77;;
59390;SDS011;53405;57.012;40.984;2022-10-16T03:47:05;21.40;;;12.38;;
59390;SDS011;53405;57.012;40.984;2022-10-16T03:49:52;20.25;;;12.48;;
59390;SDS011;53405;57.012;40.984;2022-10-16T03:52:40;19.88;;;12.77;;
59390;SDS011;53405;57.012;40.984;2022-10-16T03:55:27;23.33;;;11.93;;
59390;SDS011;53405;57.012;40.984;2022-10-16T03:58:15;22.20;;;13.45;;
59390;SDS011;53405;57.012;40.984;2022-10-16T04:01:03;19.73;;;12.27;;
59390;SDS011;53405;57.012;40.984;2022-10-16T04:03:50;21.92;;;13.38;;
59390;SDS011;53405;57.012;40.984;2022-10-16T04:06:38;20.88;;;12.05;;
59390;SDS011;53405;57.012;40.984;2022-10-16T04:09:25;20.80;;;12.82;;
59390;SDS011;53405;57.012;40.984;2022-10-16T04:12:13;21.65;;;12.13;;
59390;SDS011;53405;57.012;40.984;2022-10-16T04:15:01;24.33;;;12.73;;
59390;SDS011;53405;57.012;40.984;2022-10-16T04:17:49;19.48;;;12.57;;
59390;SDS011;53405;57.012;40.984;2022-10-16T04:20:36;20.55;;;13.02;;
59390;SDS011;53405;57.012;40.984;2022-10-16T04:23:24;22.58;;;11.63;;
59390;SDS011;53405;57.012;40.984;2022-10-16T04:26:11;23.65;;;13.52;;
59390;SDS011;53405;57.012;40.984;2022-10-16T04:28:59;21.95;;;12.25;;
59390;SDS011;53405;57.012;40.984;2022-10-16T04:31:46;20.10;;;12.23;;
59390;SDS011;53405;57.012;40.984;2022-10-16T04:34:34;21.55;;;11.95;;
59390;SDS011;53405;57.012;40.984;2022-10-16T04:37:25;21.90;;;12.32;;
59390;SDS011;53405;57.012;40.984;2022-10-16T04:40:14;21.20;;;11.13;;
59390;SDS011;53405;57.012;40.984;2022-10-16T04:43:04;21.20;;;11.93;;
59390;SDS011;53405;57.012;40.984;2022-10-16T04:45:53;21.38;;;11.75;;
59390;SDS011;53405;57.012;40.984;2022-10-16T04:48:41;19.48;;;10.85;;
59390;SDS011;53405;57.012;40.984;2022-10-16T04:51:29;19.83;;;10.85;;
59390;SDS011;53405;57.012;40.984;2022-10-16T04:54:17;18.73;;;11.15;;
59390;SDS011;53405;57.012;40.984;2022-10-16T04:57:04;21.95;;;11.60;;
59390;SDS011;53405;57.012;40.984;2022-10-16T04:59:52;23.55;;;12.80;;
59390;SDS011;53405;57.012;40.984;2022-10-16T05:02:40;21.25;;;12.23;;
59390;SDS011;53405;57.012;40.984;2022-10-16T05:05:27;24.95;;;12.07;;
59390;SDS011;53405;57.012;40.984;2022-10-16T05:08:15;21.35;;;12.18;;
59390;SDS011;53405;57.012;40.984;2022-10-16T05:11:03;19.20;;;12.40;;
59390;SDS011;53405;57.012;40.984;2022-10-16T05:13:51;20.55;;;12.15;;
59390;SDS011;53405;57.012;40.984;2022-10-16T05:16:39;19.63;;;11.63;;
59390;SDS011;53405;57.012;40.984;2022-10-16T05:19:26;25.73;;;12.55;;
59390;SDS011;53405;57.012;40.984;2022-10-16T05:22:14;21.58;;;12.00;;
59390;SDS011;53405;57.012;40.984;2022-10-16T05:25:01;24.02;;;11.88;;
59390;SDS011;53405;57.012;40.984;2022-10-16T05:27:49;19.92;;;11.52;;
59390;SDS011;53405;57.012;40.984;2022-10-16T05:30:37;19.92;;;10.60;;
59390;SDS011;53405;57.012;40.984;2022-10-16T05:33:25;19.55;;;11.13;;
59390;SDS011;53405;57.012;40.984;2022-10-16T05:36:13;21.05;;;12.10;;
59390;SDS011;53405;57.012;40.984;2022-10-16T05:39:01;20.23;;;11.23;;
59390;SDS011;53405;57.012;40.984;2022-10-16T05:41:49;23.23;;;11.25;;
59390;SDS011;53405;57.012;40.984;2022-10-16T05:44:37;23.55;;;11.57;;
59390;SDS011;53405;57.012;40.984;2022-10-16T05:47:27;19.70;;;11.15;;
59390;SDS011;53405;57.012;40.984;2022-10-16T05:50:14;21.25;;;11.45;;
59390;SDS011;53405;57.012;40.984;2022-10-16T05:53:02;22.17;;;10.98;;
59390;SDS011;53405;57.012;40.984;2022-10-16T05:55:53;18.67;;;10.98;;
59390;SDS011;53405;57.012;40.984;2022-10-16T05:58:41;18.27;;;10.52;;
59390;SDS011;53405;57.012;40.984;2022-10-16T06:01:31;18.58;;;10.27;;
59390;SDS011;53405;57.012;40.984;2022-10-16T06:04:19;21.17;;;9.85;;
59390;SDS011;53405;57.012;40.984;2022-10-16T06:07:06;26.45;;;10.88;;
59390;SDS011;53405;57.012;40.984;2022-10-16T06:09:54;20.00;;;10.68;;
59390;SDS011;53405;57.012;40.984;2022-10-16T06:12:41;18.83;;;10.18;;
59390;SDS011;53405;57.012;40.984;2022-10-16T06:15:29;16.30;;;9.85;;
59390;SDS011;53405;57.012;40.984;2022-10-16T06:18:16;19.13;;;9.70;;
59390;SDS011;53405;57.012;40.984;2022-10-16T06:21:08;20.65;;;10.52;;
59390;SDS011;53405;57.012;40.984;2022-10-16T06:23:57;19.58;;;9.45;;
59390;SDS011;53405;57.012;40.984;2022-10-16T06:26:45;19.02;;;10.02;;
59390;SDS011;53405;57.012;40.984;2022-10-16T06:29:33;18.17;;;10.02;;
59390;SDS011;53405;57.012;40.984;2022-10-16T06:32:20;18.23;;;9.80;;
59390;SDS011;53405;57.012;40.984;2022-10-16T06:35:09;21.13;;;10.18;;
59390;SDS011;53405;57.012;40.984;2022-10-16T06:37:57;24.13;;;10.05;;
59390;SDS011;53405;57.012;40.984;2022-10-16T06:40:46;18.42;;;8.32;;
59390;SDS011;53405;57.012;40.984;2022-10-16T06:43:35;15.88;;;8.60;;
59390;SDS011;53405;57.012;40.984;2022-10-16T06:46:23;15.80;;;8.63;;
59390;SDS011;53405;57.012;40.984;2022-10-16T06:49:12;17.25;;;9.45;;
59390;SDS011;53405;57.012;40.984;2022-10-16T06:52:00;15.23;;;8.45;;
59390;SDS011;53405;57.012;40.984;2022-10-16T06:54:49;16.15;;;8.45;;
59390;SDS011;53405;57.012;40.984;2022-10-16T06:57:37;15.40;;;7.75;;
59390;SDS011;53405;57.012;40.984;2022-10-16T07:00:24;13.48;;;7.50;;
59390;SDS011;53405;57.012;40.984;2022-10-16T07:03:12;13.93;;;7.38;;
59390;SDS011;53405;57.012;40.984;2022-10-16T07:06:03;15.32;;;8.45;;
59390;SDS011;53405;57.012;40.984;2022-10-16T07:08:52;14.23;;;7.90;;
59390;SDS011;53405;57.012;40.984;2022-10-16T07:11:40;14.93;;;8.30;;
59390;SDS011;53405;57.012;40.984;2022-10-16T07:14:28;17.13;;;8.70;;
59390;SDS011;53405;57.012;40.984;2022-10-16T07:17:17;16.05;;;7.82;;
59390;SDS011;53405;57.012;40.984;2022-10-16T07:20:04;15.57;;;7.63;;
59390;SDS011;53405;57.012;40.984;2022-10-16T07:22:52;17.90;;;7.88;;
59390;SDS011;53405;57.012;40.984;2022-10-16T07:25:40;12.98;;;7.35;;
59390;SDS011;53405;57.012;40.984;2022-10-16T07:28:27;16.95;;;7.47;;
59390;SDS011;53405;57.012;40.984;2022-10-16T07:31:17;15.73;;;6.70;;
59390;SDS011;53405;57.012;40.984;2022-10-16T07:34:05;16.50;;;6.93;;
59390;SDS011;53405;57.012;40.984;2022-10-16T07:36:53;13.77;;;6.57;;
59390;SDS011;53405;57.012;40.984;2022-10-16T07:39:41;13.60;;;5.88;;
59390;SDS011;53405;57.012;40.984;2022-10-16T07:42:28;9.98;;;5.40;;
59390;SDS011;53405;57.012;40.984;2022-10-16T07:45:16;13.60;;;5.68;;
59390;SDS011;53405;57.012;40.984;2022-10-16T07:48:03;11.85;;;5.65;;
59390;SDS011;53405;57.012;40.984;2022-10-16T07:50:51;8.32;;;4.00;;
59390;SDS011;53405;57.012;40.984;2022-10-16T07:53:39;8.25;;;4.00;;
59390;SDS011;53405;57.012;40.984;2022-10-16T07:56:26;9.25;;;4.30;;
59390;SDS011;53405;57.012;40.984;2022-10-16T07:59:14;10.07;;;3.72;;
59390;SDS011;53405;57.012;40.984;2022-10-16T08:02:01;9.98;;;3.80;;
59390;SDS011;53405;57.012;40.984;2022-10-16T08:04:48;10.25;;;4.50;;
59390;SDS011;53405;57.012;40.984;2022-10-16T08:07:37;12.38;;;4.32;;
59390;SDS011;53405;57.012;40.984;2022-10-16T08:10:25;12.75;;;4.68;;
59390;SDS011;53405;57.012;40.984;2022-10-16T08:13:14;10.00;;;4.70;;
59390;SDS011;53405;57.012;40.984;2022-10-16T08:16:02;10.15;;;3.60;;
59390;SDS011;53405;57.012;40.984;2022-10-16T08:18:54;9.88;;;4.45;;
59390;SDS011;53405;57.012;40.984;2022-10-16T08:21:41;9.43;;;3.90;;
59390;SDS011;53405;57.012;40.984;2022-10-16T08:24:29;10.63;;;4.55;;
59390;SDS011;53405;57.012;40.984;2022-10-16T08:27:18;9.55;;;4.38;;
59390;SDS011;53405;57.012;40.984;2022-10-16T08:30:06;9.27;;;3.40;;
59390;SDS011;53405;57.012;40.984;2022-10-16T08:32:54;7.18;;;3.60;;
59390;SDS011;53405;57.012;40.984;2022-10-16T08:35:41;9.13;;;3.22;;
59390;SDS011;53405;57.012;40.984;2022-10-16T08:38:29;7.13;;;3.20;;
59390;SDS011;53405;57.012;40.984;2022-10-16T08:41:26;11.63;;;3.38;;
59390;SDS011;53405;57.012;40.984;2022-10-16T08:48:05;8.07;;;3.58;;
59390;SDS011;53405;57.012;40.984;2022-10-16T08:51:02;8.63;;;3.47;;
59390;SDS011;53405;57.012;40.984;2022-10-16T08:53:55;10.57;;;3.70;;
59390;SDS011;53405;57.012;40.984;2022-10-16T08:56:55;9.68;;;3.17;;
59390;SDS011;53405;57.012;40.984;2022-10-16T08:59:44;8.18;;;3.20;;
59390;SDS011;53405;57.012;40.984;2022-10-16T09:02:35;8.07;;;3.67;;
59390;SDS011;53405;57.012;40.984;2022-10-16T09:12:15;7.82;;;3.20;;
59390;SDS011;53405;57.012;40.984;2022-10-16T09:18:06;6.85;;;3.65;;
59390;SDS011;53405;57.012;40.984;2022-10-16T09:21:19;9.48;;;3.92;;
59390;SDS011;53405;57.012;40.984;2022-10-16T09:27:03;6.32;;;3.10;;
59390;SDS011;53405;57.012;40.984;2022-10-16T09:29:50;6.40;;;2.97;;
59390;SDS011;53405;57.012;40.984;2022-10-16T09:32:40;6.53;;;3.10;;
59390;SDS011;53405;57.012;40.984;2022-10-16T09:35:38;8.02;;;3.63;;
59390;SDS011;53405;57.012;40.984;2022-10-16T09:38:33;7.72;;;3.97;;
59390;SDS011;53405;57.012;40.984;2022-10-16T09:41:25;9.30;;;4.45;;
59390;SDS011;53405;57.012;40.984;2022-10-16T09:44:22;7.85;;;4.10;;
59390;SDS011;53405;57.012;40.984;2022-10-16T09:47:18;10.45;;;3.50;;
59390;SDS011;53405;57.012;40.984;2022-10-16T09:50:20;8.77;;;3.58;;
59390;SDS011;53405;57.012;40.984;2022-10-16T09:53:12;7.68;;;3.50;;
59390;SDS011;53405;57.012;40.984;2022-10-16T09:56:01;9.40;;;3.28;;
59390;SDS011;53405;57.012;40.984;2022-10-16T09:58:52;10.85;;;3.70;;
59390;SDS011;53405;57.012;40.984;2022-10-16T10:01:43;9.32;;;3.20;;
59390;SDS011;53405;57.012;40.984;2022-10-16T10:04:40;8.98;;;3.47;;
59390;SDS011;53405;57.012;40.984;2022-10-16T10:07:33;6.57;;;3.05;;
59390;SDS011;53405;57.012;40.984;2022-10-16T10:10:27;6.97;;;2.83;;
59390;SDS011;53405;57.012;40.984;2022-10-16T10:13:20;6.88;;;2.60;;
59390;SDS011;53405;57.012;40.984;2022-10-16T10:16:08;8.43;;;3.10;;
59390;SDS011;53405;57.012;40.984;2022-10-16T10:18:59;6.75;;;3.20;;
59390;SDS011;53405;57.012;40.984;2022-10-16T10:21:48;9.75;;;3.38;;
59390;SDS011;53405;57.012;40.984;2022-10-16T10:24:37;7.00;;;2.90;;
59390;SDS011;53405;57.012;40.984;2022-10-16T10:27:39;8.48;;;3.50;;
59390;SDS011;53405;57.012;40.984;2022-10-16T10:36:35;8.02;;;3.00;;
59390;SDS011;53405;57.012;40.984;2022-10-16T10:39:26;9.38;;;3.80;;
59390;SDS011;53405;57.012;40.984;2022-10-16T10:42:25;6.68;;;3.20;;
59390;SDS011;53405;57.012;40.984;2022-10-16T10:45:27;7.15;;;3.25;;
59390;SDS011;53405;57.012;40.984;2022-10-16T10:48:29;8.40;;;2.95;;
59390;SDS011;53405;57.012;40.984;2022-10-16T10:55:03;9.07;;;2.90;;
59390;SDS011;53405;57.012;40.984;2022-10-16T10:58:21;8.23;;;2.90;;
59390;SDS011;53405;57.012;40.984;2022-10-16T11:13:55;7.32;;;3.20;;
59390;SDS011;53405;57.012;40.984;2022-10-16T11:22:38;12.00;;;3.97;;
59390;SDS011;53405;57.012;40.984;2022-10-16T11:25:33;8.13;;;3.38;;
59390;SDS011;53405;57.012;40.984;2022-10-16T11:28:23;9.07;;;3.95;;
59390;SDS011;53405;57.012;40.984;2022-10-16T11:31:46;9.93;;;3.85;;
59390;SDS011;53405;57.012;40.984;2022-10-16T11:34:38;9.35;;;4.00;;
59390;SDS011;53405;57.012;40.984;2022-10-16T11:37:39;9.68;;;3.50;;
59390;SDS011;53405;57.012;40.984;2022-10-16T11:40:33;9.48;;;3.55;;
59390;SDS011;53405;57.012;40.984;2022-10-16T11:43:35;9.68;;;3.58;;
59390;SDS011;53405;57.012;40.984;2022-10-16T11:46:27;8.35;;;3.60;;
59390;SDS011;53405;57.012;40.984;2022-10-16T11:49:19;10.15;;;3.65;;
59390;SDS011;53405;57.012;40.984;2022-10-16T11:52:14;9.23;;;4.50;;
59390;SDS011;53405;57.012;40.984;2022-10-16T11:58:00;7.13;;;3.70;;
59390;SDS011;53405;57.012;40.984;2022-10-16T12:01:10;7.25;;;3.50;;
59390;SDS011;53405;57.012;40.984;2022-10-16T12:07:09;7.95;;;3.75;;
59390;SDS011;53405;57.012;40.984;2022-10-16T12:10:25;10.13;;;3.97;;
59390;SDS011;53405;57.012;40.984;2022-10-16T12:13:34;8.07;;;3.05;;
59390;SDS011;53405;57.012;40.984;2022-10-16T12:16:24;8.40;;;3.97;;
59390;SDS011;53405;57.012;40.984;2022-10-16T12:19:12;8.77;;;3.90;;
59390;SDS011;53405;57.012;40.984;2022-10-16T12:22:02;14.07;;;4.07;;
59390;SDS011;53405;57.012;40.984;2022-10-16T12:24:51;9.02;;;3.95;;
59390;SDS011;53405;57.012;40.984;2022-10-16T12:27:38;9.00;;;3.75;;
59390;SDS011;53405;57.012;40.984;2022-10-16T12:30:27;8.90;;;3.13;;
59390;SDS011;53405;57.012;40.984;2022-10-16T12:33:20;9.95;;;3.90;;
59390;SDS011;53405;57.012;40.984;2022-10-16T12:36:16;9.32;;;3.50;;
59390;SDS011;53405;57.012;40.984;2022-10-16T12:39:27;8.75;;;3.67;;
59390;SDS011;53405;57.012;40.984;2022-10-16T12:45:33;11.25;;;4.57;;
59390;SDS011;53405;57.012;40.984;2022-10-16T12:51:48;10.55;;;4.35;;
59390;SDS011;53405;57.012;40.984;2022-10-16T12:54:37;12.93;;;4.80;;
59390;SDS011;53405;57.012;40.984;2022-10-16T13:03:41;12.10;;;4.88;;
59390;SDS011;53405;57.012;40.984;2022-10-16T13:12:39;12.05;;;5.13;;
59390;SDS011;53405;57.012;40.984;2022-10-16T13:18:31;13.18;;;5.45;;
59390;SDS011;53405;57.012;40.984;2022-10-16T13:21:39;11.02;;;4.10;;
59390;SDS011;53405;57.012;40.984;2022-10-16T13:30:43;7.95;;;3.95;;
59390;SDS011;53405;57.012;40.984;2022-10-16T13:33:39;11.38;;;4.05;;
59390;SDS011;53405;57.012;40.984;2022-10-16T13:36:30;13.10;;;4.10;;
59390;SDS011;53405;57.012;40.984;2022-10-16T13:39:25;9.30;;;3.80;;
59390;SDS011;53405;57.012;40.984;2022-10-16T13:45:17;12.20;;;3.78;;
59390;SDS011;53405;57.012;40.984;2022-10-16T13:48:09;14.05;;;4.55;;
59390;SDS011;53405;57.012;40.984;2022-10-16T13:51:04;8.48;;;3.80;;
59390;SDS011;53405;57.012;40.984;2022-10-16T13:53:54;9.40;;;3.50;;
59390;SDS011;53405;57.012;40.984;2022-10-16T13:56:44;10.52;;;3.78;;
59390;SDS011;53405;57.012;40.984;2022-10-16T13:59:35;9.82;;;3.90;;
59390;SDS011;53405;57.012;40.984;2022-10-16T14:02:34;11.10;;;3.75;;
59390;SDS011;53405;57.012;40.984;2022-10-16T14:05:25;10.13;;;4.15;;
59390;SDS011;53405;57.012;40.984;2022-10-16T14:08:13;12.35;;;4.43;;
59390;SDS011;53405;57.012;40.984;2022-10-16T14:11:01;9.70;;;3.97;;
59390;SDS011;53405;57.012;40.984;2022-10-16T14:13:49;10.60;;;4.15;;
59390;SDS011;53405;57.012;40.984;2022-10-16T14:16:37;10.02;;;4.47;;
59390;SDS011;53405;57.012;40.984;2022-10-16T14:19:29;9.75;;;4.20;;
59390;SDS011;53405;57.012;40.984;2022-10-16T14:22:37;9.98;;;3.60;;
59390;SDS011;53405;57.012;40.984;2022-10-16T14:25:28;10.38;;;4.50;;
59390;SDS011;53405;57.012;40.984;2022-10-16T14:28:19;8.35;;;3.97;;
59390;SDS011;53405;57.012;40.984;2022-10-16T14:34:26;11.82;;;5.63;;
59390;SDS011;53405;57.012;40.984;2022-10-16T14:40:14;18.42;;;8.07;;
59390;SDS011;53405;57.012;40.984;2022-10-16T14:43:02;13.23;;;6.85;;
59390;SDS011;53405;57.012;40.984;2022-10-16T14:45:51;12.63;;;6.10;;
59390;SDS011;53405;57.012;40.984;2022-10-16T14:48:42;14.05;;;6.10;;
59390;SDS011;53405;57.012;40.984;2022-10-16T14:51:31;12.93;;;6.13;;
59390;SDS011;53405;57.012;40.984;2022-10-16T14:54:18;13.07;;;5.57;;
59390;SDS011;53405;57.012;40.984;2022-10-16T14:57:15;14.25;;;5.53;;
59390;SDS011;53405;57.012;40.984;2022-10-16T15:00:15;12.02;;;5.75;;
59390;SDS011;53405;57.012;40.984;2022-10-16T15:03:04;14.68;;;5.82;;
59390;SDS011;53405;57.012;40.984;2022-10-16T15:05:52;10.32;;;5.18;;
59390;SDS011;53405;57.012;40.984;2022-10-16T15:08:40;13.50;;;5.57;;
59390;SDS011;53405;57.012;40.984;2022-10-16T15:11:28;11.85;;;5.57;;
59390;SDS011;53405;57.012;40.984;2022-10-16T15:14:17;13.40;;;5.20;;
59390;SDS011;53405;57.012;40.984;2022-10-16T15:17:05;11.70;;;5.55;;
59390;SDS011;53405;57.012;40.984;2022-10-16T15:19:52;10.85;;;5.47;;
59390;SDS011;53405;57.012;40.984;2022-10-16T15:22:40;12.00;;;5.30;;
59390;SDS011;53405;57.012;40.984;2022-10-16T15:28:26;14.17;;;5.47;;
59390;SDS011;53405;57.012;40.984;2022-10-16T15:31:14;12.13;;;6.50;;
59390;SDS011;53405;57.012;40.984;2022-10-16T15:34:04;11.38;;;6.10;;
59390;SDS011;53405;57.012;40.984;2022-10-16T15:36:52;10.63;;;5.10;;
59390;SDS011;53405;57.012;40.984;2022-10-16T15:39:42;13.55;;;6.10;;
59390;SDS011;53405;57.012;40.984;2022-10-16T15:42:29;12.18;;;4.80;;
59390;SDS011;53405;57.012;40.984;2022-10-16T15:45:17;12.77;;;5.18;;
59390;SDS011;53405;57.012;40.984;2022-10-16T15:48:06;12.05;;;5.05;;
59390;SDS011;53405;57.012;40.984;2022-10-16T15:50:57;9.15;;;4.20;;
59390;SDS011;53405;57.012;40.984;2022-10-16T15:53:44;9.40;;;4.32;;
59390;SDS011;53405;57.012;40.984;2022-10-16T15:56:33;10.65;;;5.22;;
59390;SDS011;53405;57.012;40.984;2022-10-16T15:59:21;14.55;;;5.07;;
59390;SDS011;53405;57.012;40.984;2022-10-16T16:02:08;11.43;;;5.10;;
59390;SDS011;53405;57.012;40.984;2022-10-16T16:04:57;10.27;;;4.93;;
59390;SDS011;53405;57.012;40.984;2022-10-16T16:07:45;11.95;;;5.10;;
59390;SDS011;53405;57.012;40.984;2022-10-16T16:10:32;15.18;;;5.75;;
59390;SDS011;53405;57.012;40.984;2022-10-16T16:13:20;11.68;;;5.00;;
59390;SDS011;53405;57.012;40.984;2022-10-16T16:16:08;9.52;;;4.43;;
59390;SDS011;53405;57.012;40.984;2022-10-16T16:18:57;14.13;;;4.97;;
59390;SDS011;53405;57.012;40.984;2022-10-16T16:21:44;11.07;;;4.55;;
59390;SDS011;53405;57.012;40.984;2022-10-16T16:24:32;13.18;;;4.75;;
59390;SDS011;53405;57.012;40.984;2022-10-16T16:27:20;11.57;;;5.50;;
59390;SDS011;53405;57.012;40.984;2022-10-16T16:30:09;12.80;;;4.32;;
59390;SDS011;53405;57.012;40.984;2022-10-16T16:33:01;12.43;;;4.90;;
59390;SDS011;53405;57.012;40.984;2022-10-16T16:35:55;10.32;;;5.00;;
59390;SDS011;53405;57.012;40.984;2022-10-16T16:38:44;14.95;;;5.38;;
59390;SDS011;53405;57.012;40.984;2022-10-16T16:41:32;12.23;;;5.22;;
59390;SDS011;53405;57.012;40.984;2022-10-16T16:44:20;7.90;;;5.30;;
59390;SDS011;53405;57.012;40.984;2022-10-16T16:47:08;8.57;;;4.78;;
59390;SDS011;53405;57.012;40.984;2022-10-16T16:49:56;11.38;;;4.90;;
59390;SDS011;53405;57.012;40.984;2022-10-16T16:52:43;11.82;;;5.25;;
59390;SDS011;53405;57.012;40.984;2022-10-16T16:55:32;10.52;;;4.80;;
59390;SDS011;53405;57.012;40.984;2022-10-16T16:58:20;10.15;;;4.53;;
59390;SDS011;53405;57.012;40.984;2022-10-16T17:01:09;9.55;;;5.20;;
59390;SDS011;53405;57.012;40.984;2022-10-16T17:04:35;11.93;;;4.35;;
59390;SDS011;53405;57.012;40.984;2022-10-16T17:07:22;8.63;;;4.57;;
59390;SDS011;53405;57.012;40.984;2022-10-16T17:13:00;11.63;;;4.80;;
59390;SDS011;53405;57.012;40.984;2022-10-16T17:15:48;9.77;;;4.90;;
59390;SDS011;53405;57.012;40.984;2022-10-16T17:18:36;9.63;;;4.57;;
59390;SDS011;53405;57.012;40.984;2022-10-16T17:21:41;8.77;;;4.25;;
59390;SDS011;53405;57.012;40.984;2022-10-16T17:24:29;9.82;;;4.75;;
59390;SDS011;53405;57.012;40.984;2022-10-16T17:27:19;10.35;;;5.10;;
59390;SDS011;53405;57.012;40.984;2022-10-16T17:30:07;14.45;;;5.00;;
59390;SDS011;53405;57.012;40.984;2022-10-16T17:32:55;11.43;;;5.05;;
59390;SDS011;53405;57.012;40.984;2022-10-16T17:35:45;10.05;;;5.20;;
59390;SDS011;53405;57.012;40.984;2022-10-16T17:38:34;10.40;;;4.90;;
59390;SDS011;53405;57.012;40.984;2022-10-16T17:41:22;11.95;;;4.72;;
59390;SDS011;53405;57.012;40.984;2022-10-16T17:44:10;10.02;;;4.60;;
59390;SDS011;53405;57.012;40.984;2022-10-16T17:47:05;11.77;;;5.00;;
59390;SDS011;53405;57.012;40.984;2022-10-16T17:49:56;11.60;;;5.40;;
59390;SDS011;53405;57.012;40.984;2022-10-16T17:52:44;10.32;;;4.70;;
59390;SDS011;53405;57.012;40.984;2022-10-16T17:55:38;11.18;;;5.28;;
59390;SDS011;53405;57.012;40.984;2022-10-16T17:58:27;10.77;;;4.85;;
59390;SDS011;53405;57.012;40.984;2022-10-16T18:01:21;10.60;;;4.35;;
59390;SDS011;53405;57.012;40.984;2022-10-16T18:04:12;11.30;;;4.95;;
59390;SDS011;53405;57.012;40.984;2022-10-16T18:07:02;9.52;;;4.63;;
59390;SDS011;53405;57.012;40.984;2022-10-16T18:09:50;11.85;;;4.50;;
59390;SDS011;53405;57.012;40.984;2022-10-16T18:12:48;12.02;;;4.97;;
59390;SDS011;53405;57.012;40.984;2022-10-16T18:15:36;12.63;;;4.78;;
59390;SDS011;53405;57.012;40.984;2022-10-16T18:18:23;8.95;;;4.90;;
59390;SDS011;53405;57.012;40.984;2022-10-16T18:21:12;10.70;;;4.80;;
59390;SDS011;53405;57.012;40.984;2022-10-16T18:24:03;12.65;;;4.97;;
59390;SDS011;53405;57.012;40.984;2022-10-16T18:26:51;10.48;;;4.93;;